Time;durP1;ratioP1;P1;durP2;ratioP2;P2;SDS_P1;SDS_P2;PMS_P1;PMS_P2;Temp;Humidity;BMP_temperature;BMP_pressure;BME280_temperature;BME280_humidity;BME280_pressure;Samples;Min_cycle;Max_cycle;Signal;HPM_P1;HPM_P2
2022/08/30 00:01:13;;;;;;;12.90;3.78;;;19.00;99.90;;;;;;5093288;28;20206;-57
2022/08/30 00:03:44;;;;;;;6.60;4.07;;;18.90;99.90;;;;;;5094678;28;20177;-59
2022/08/30 00:06:12;;;;;;;9.73;3.90;;;18.90;99.90;;;;;;5089387;28;20185;-58
2022/08/30 00:08:39;;;;;;;9.30;3.90;;;18.90;99.90;;;;;;5097254;28;20177;-57
2022/08/30 00:11:08;;;;;;;8.63;4.00;;;18.90;99.90;;;;;;5114240;28;20185;-55
2022/08/30 00:13:35;;;;;;;6.93;3.60;;;18.80;99.90;;;;;;5076693;28;20186;-56
2022/08/30 00:16:01;;;;;;;12.20;3.95;;;18.90;99.90;;;;;;5106657;28;20184;-55
2022/08/30 00:18:27;;;;;;;10.85;4.32;;;18.80;99.90;;;;;;5110649;28;20268;-56
2022/08/30 00:20:54;;;;;;;8.60;4.15;;;18.80;99.90;;;;;;5111828;28;20178;-56
2022/08/30 00:23:20;;;;;;;9.85;4.20;;;18.80;99.90;;;;;;5102508;28;20184;-56
2022/08/30 00:25:46;;;;;;;10.90;4.25;;;18.80;99.90;;;;;;5075146;28;20201;-59
2022/08/30 00:28:13;;;;;;;10.35;4.20;;;18.80;99.90;;;;;;5089412;28;20182;-62
2022/08/30 00:30:40;;;;;;;8.40;4.20;;;18.70;99.90;;;;;;5108046;28;20200;-63
2022/08/30 00:33:06;;;;;;;9.75;4.40;;;18.70;99.90;;;;;;5109521;28;20564;-58
2022/08/30 00:35:32;;;;;;;9.30;4.20;;;18.70;99.90;;;;;;5091601;28;20533;-56
2022/08/30 00:37:59;;;;;;;9.80;4.30;;;18.70;99.90;;;;;;5079258;28;20680;-57
2022/08/30 00:40:27;;;;;;;6.45;4.20;;;18.70;99.90;;;;;;5097964;28;20192;-59
2022/08/30 00:42:56;;;;;;;9.25;4.40;;;18.70;99.90;;;;;;5085013;28;20208;-56
2022/08/30 00:45:26;;;;;;;11.35;4.43;;;18.70;99.90;;;;;;5094344;28;20563;-57
2022/08/30 00:47:52;;;;;;;9.95;4.50;;;18.70;99.90;;;;;;5093676;28;20617;-57
2022/08/30 00:50:23;;;;;;;7.95;4.60;;;18.70;99.90;;;;;;5091507;28;20178;-64
2022/08/30 00:52:54;;;;;;;9.00;4.60;;;18.60;99.90;;;;;;5094652;28;20249;-56
2022/08/30 00:55:20;;;;;;;9.70;4.65;;;18.60;99.90;;;;;;5093129;28;20220;-57
2022/08/30 00:57:49;;;;;;;15.45;4.55;;;18.60;99.90;;;;;;5093084;28;20200;-56
2022/08/30 01:00:15;;;;;;;8.80;4.55;;;18.60;99.90;;;;;;5074230;28;20182;-58
2022/08/30 01:02:41;;;;;;;10.18;5.10;;;18.60;99.90;;;;;;5086181;28;20209;-62
2022/08/30 01:05:12;;;;;;;7.15;4.65;;;18.60;99.90;;;;;;5098604;28;20178;-57
2022/08/30 01:07:39;;;;;;;9.82;5.15;;;18.50;99.90;;;;;;5100036;28;20173;-57
2022/08/30 01:10:08;;;;;;;10.13;5.10;;;18.50;99.90;;;;;;5109053;28;20169;-57
2022/08/30 01:12:35;;;;;;;11.57;4.82;;;18.50;99.90;;;;;;5080417;28;20236;-58
2022/08/30 01:15:02;;;;;;;9.27;4.90;;;18.50;99.90;;;;;;5115425;28;20205;-56
2022/08/30 01:17:28;;;;;;;7.80;4.75;;;18.50;99.90;;;;;;5086913;28;20664;-56
2022/08/30 01:20:23;;;;;;;11.23;4.90;;;18.50;99.90;;;;;;5098893;28;20261;-63
2022/08/30 01:22:49;;;;;;;10.02;5.28;;;18.50;99.90;;;;;;5092080;28;20382;-57
2022/08/30 01:25:23;;;;;;;10.65;5.53;;;18.50;99.90;;;;;;5099272;28;20593;-58
2022/08/30 01:28:05;;;;;;;9.98;5.13;;;18.40;99.90;;;;;;5096849;28;20203;-57
2022/08/30 01:30:32;;;;;;;12.45;5.00;;;18.40;99.90;;;;;;5095345;28;20178;-57
2022/08/30 01:33:01;;;;;;;10.20;5.20;;;18.40;99.90;;;;;;5063922;28;20514;-57
2022/08/30 01:35:29;;;;;;;10.52;5.07;;;18.30;99.90;;;;;;5108967;28;20177;-57
2022/08/30 01:37:54;;;;;;;10.50;5.68;;;18.40;99.90;;;;;;5095115;28;20201;-57
2022/08/30 01:40:21;;;;;;;12.98;5.57;;;18.40;99.90;;;;;;5095395;28;20304;-58
2022/08/30 01:42:48;;;;;;;9.50;5.35;;;18.30;99.90;;;;;;5093321;28;20399;-57
2022/08/30 01:45:14;;;;;;;9.48;5.63;;;18.30;99.90;;;;;;5096173;28;20174;-56
2022/08/30 01:47:40;;;;;;;15.25;5.57;;;18.30;99.90;;;;;;5096479;28;20177;-57
2022/08/30 01:50:07;;;;;;;11.65;5.90;;;18.30;99.90;;;;;;5098188;28;20193;-56
2022/08/30 01:52:33;;;;;;;12.07;5.78;;;18.30;99.90;;;;;;5080906;28;20230;-57
2022/08/30 01:54:59;;;;;;;10.27;5.68;;;18.30;99.90;;;;;;5114854;28;20184;-57
2022/08/30 01:57:25;;;;;;;13.30;5.80;;;18.30;99.90;;;;;;5111324;28;20550;-55
2022/08/30 01:59:51;;;;;;;8.30;5.70;;;18.30;99.90;;;;;;5095737;28;20684;-63
2022/08/30 02:02:21;;;;;;;13.48;6.30;;;18.20;99.90;;;;;;5077444;28;20312;-63
2022/08/30 02:04:47;;;;;;;12.63;6.10;;;18.20;99.90;;;;;;5092765;27;20578;-56
2022/08/30 02:07:13;;;;;;;11.20;6.13;;;18.20;99.90;;;;;;5096254;28;20261;-56
2022/08/30 02:09:40;;;;;;;10.90;6.22;;;18.10;99.90;;;;;;5111511;28;20639;-56
2022/08/30 02:12:06;;;;;;;10.90;6.05;;;18.20;99.90;;;;;;5107057;28;20182;-64
2022/08/30 02:14:34;;;;;;;14.95;6.68;;;18.10;99.90;;;;;;5061863;28;20210;-57
2022/08/30 02:17:01;;;;;;;15.95;6.93;;;18.10;99.90;;;;;;5077278;28;20193;-58
2022/08/30 02:19:27;;;;;;;9.93;6.78;;;18.10;99.90;;;;;;5094492;27;20217;-57
2022/08/30 02:21:53;;;;;;;12.93;6.53;;;18.10;99.90;;;;;;5098460;28;20201;-60
2022/08/30 02:24:19;;;;;;;11.02;6.35;;;18.10;99.90;;;;;;5077753;28;20586;-58
2022/08/30 02:26:45;;;;;;;9.27;6.53;;;18.10;99.90;;;;;;5077331;28;20189;-59
2022/08/30 02:29:11;;;;;;;11.13;6.82;;;18.10;99.90;;;;;;5096035;28;20175;-56
2022/08/30 02:31:37;;;;;;;15.57;6.72;;;18.10;99.90;;;;;;5086481;28;20640;-54
2022/08/30 02:34:03;;;;;;;11.82;6.93;;;18.10;99.90;;;;;;5093839;28;20258;-58
2022/08/30 02:36:29;;;;;;;12.35;6.78;;;18.10;99.90;;;;;;5093169;27;20664;-55
2022/08/30 02:38:55;;;;;;;9.88;6.85;;;18.10;99.90;;;;;;5095603;28;20213;-59
2022/08/30 02:41:22;;;;;;;13.45;6.90;;;18.00;99.90;;;;;;5107551;28;20232;-58
2022/08/30 02:43:49;;;;;;;11.50;7.00;;;18.00;99.90;;;;;;5099489;28;20162;-59
2022/08/30 02:46:16;;;;;;;13.13;7.13;;;18.00;99.90;;;;;;5077153;28;20181;-56
2022/08/30 02:48:41;;;;;;;13.32;7.43;;;18.00;99.90;;;;;;5097573;28;20178;-61
2022/08/30 02:51:10;;;;;;;10.50;7.40;;;18.00;99.90;;;;;;5077393;28;20345;-57
2022/08/30 02:53:36;;;;;;;12.60;7.50;;;17.90;99.90;;;;;;5099773;28;20226;-57
2022/08/30 02:56:02;;;;;;;15.35;7.05;;;17.90;99.90;;;;;;5082585;28;20309;-58
2022/08/30 02:58:28;;;;;;;14.05;7.68;;;17.90;99.90;;;;;;5102349;28;20208;-56
2022/08/30 03:00:54;;;;;;;11.95;8.02;;;17.90;99.90;;;;;;5094761;28;20173;-55
2022/08/30 03:03:19;;;;;;;10.90;7.60;;;17.90;99.90;;;;;;5086280;28;20204;-58
2022/08/30 03:05:45;;;;;;;10.25;7.43;;;17.80;99.90;;;;;;5074419;28;21077;-63
2022/08/30 03:08:11;;;;;;;11.05;7.63;;;17.80;99.90;;;;;;5096954;28;20218;-58
2022/08/30 03:10:37;;;;;;;11.30;8.00;;;17.80;99.90;;;;;;5096971;28;20207;-57
2022/08/30 03:13:06;;;;;;;14.23;7.88;;;17.80;99.90;;;;;;5106346;28;20173;-57
2022/08/30 03:15:34;;;;;;;12.43;7.63;;;17.80;99.90;;;;;;5092223;28;20181;-58
2022/08/30 03:18:00;;;;;;;12.88;7.55;;;17.80;99.90;;;;;;5095400;28;20239;-58
2022/08/30 03:20:26;;;;;;;10.77;7.63;;;17.70;99.90;;;;;;5093318;28;20227;-58
2022/08/30 03:22:52;;;;;;;14.82;7.60;;;17.70;99.90;;;;;;5081766;28;20201;-57
2022/08/30 03:25:19;;;;;;;12.52;7.47;;;17.70;99.90;;;;;;5112332;28;20574;-55
2022/08/30 03:27:45;;;;;;;12.18;8.02;;;17.70;99.90;;;;;;5093328;28;20204;-56
2022/08/30 03:30:12;;;;;;;14.00;7.90;;;17.60;99.90;;;;;;5097952;28;20173;-57
2022/08/30 03:32:39;;;;;;;16.02;8.27;;;17.60;99.90;;;;;;5075016;28;20182;-58
2022/08/30 03:35:06;;;;;;;12.10;7.50;;;17.60;99.90;;;;;;5093324;28;20178;-58
2022/08/30 03:37:31;;;;;;;12.07;8.13;;;17.60;99.90;;;;;;5090250;27;20185;-56
2022/08/30 03:39:57;;;;;;;12.63;7.72;;;17.60;99.90;;;;;;5093918;28;20193;-58
2022/08/30 03:42:23;;;;;;;11.50;7.60;;;17.60;99.90;;;;;;5092246;28;20685;-57
2022/08/30 03:44:49;;;;;;;11.93;8.30;;;17.50;99.90;;;;;;5079267;28;20533;-58
2022/08/30 03:47:15;;;;;;;11.18;7.65;;;17.50;99.90;;;;;;5108547;28;20241;-60
2022/08/30 03:49:40;;;;;;;12.18;8.23;;;17.50;99.90;;;;;;5093271;28;20311;-57
2022/08/30 03:52:06;;;;;;;12.80;8.75;;;17.50;99.90;;;;;;5074809;28;20650;-63
2022/08/30 03:54:32;;;;;;;12.18;7.88;;;17.50;99.90;;;;;;5094006;28;20243;-60
2022/08/30 03:56:58;;;;;;;10.90;7.55;;;17.40;99.90;;;;;;5089728;28;20188;-57
2022/08/30 03:59:24;;;;;;;13.13;8.25;;;17.40;99.90;;;;;;5083565;28;20182;-58
2022/08/30 04:01:50;;;;;;;13.18;7.65;;;17.40;99.90;;;;;;5109532;28;20299;-62
2022/08/30 04:04:15;;;;;;;11.95;7.53;;;17.40;99.90;;;;;;5094353;28;20331;-58
2022/08/30 04:06:41;;;;;;;13.13;8.20;;;17.40;99.90;;;;;;5109273;28;20181;-63
2022/08/30 04:09:07;;;;;;;14.20;8.23;;;17.40;99.90;;;;;;5094697;28;20691;-57
2022/08/30 04:11:32;;;;;;;11.40;7.97;;;17.40;99.90;;;;;;5102760;28;20195;-57
2022/08/30 04:13:58;;;;;;;11.05;7.68;;;17.40;99.90;;;;;;5090035;28;20288;-57
2022/08/30 04:16:25;;;;;;;11.80;7.80;;;17.40;99.90;;;;;;5076760;28;20606;-57
2022/08/30 04:18:51;;;;;;;11.85;7.47;;;17.30;99.90;;;;;;5097211;28;20182;-58
2022/08/30 04:21:17;;;;;;;12.98;7.85;;;17.30;99.90;;;;;;5093453;28;20213;-60
2022/08/30 04:23:43;;;;;;;15.07;7.78;;;17.30;99.90;;;;;;5091695;28;20224;-56
2022/08/30 04:26:09;;;;;;;11.55;8.00;;;17.30;99.90;;;;;;5108747;28;20192;-59
2022/08/30 04:28:35;;;;;;;10.77;8.07;;;17.30;99.90;;;;;;5087042;28;20220;-56
2022/08/30 04:31:13;;;;;;;18.17;7.90;;;17.30;99.90;;;;;;5113456;28;20201;-57
2022/08/30 04:33:40;;;;;;;13.77;8.00;;;17.30;99.90;;;;;;5100330;28;20182;-57
2022/08/30 04:36:08;;;;;;;14.02;8.48;;;17.30;99.90;;;;;;5074145;28;20170;-58
2022/08/30 04:38:35;;;;;;;11.40;7.90;;;17.20;99.90;;;;;;5091177;28;20217;-61
2022/08/30 04:41:02;;;;;;;12.55;8.25;;;17.20;99.90;;;;;;5105947;28;20201;-58
2022/08/30 04:43:28;;;;;;;11.57;8.15;;;17.20;99.90;;;;;;5094041;28;20177;-57
2022/08/30 04:45:54;;;;;;;14.90;8.35;;;17.20;99.90;;;;;;5112252;28;20230;-57
2022/08/30 04:48:21;;;;;;;14.10;8.77;;;17.20;99.90;;;;;;5092055;28;20184;-58
2022/08/30 04:50:47;;;;;;;13.50;8.38;;;17.20;99.90;;;;;;5111041;28;20175;-57
2022/08/30 04:53:14;;;;;;;10.82;8.38;;;17.20;99.90;;;;;;5100710;28;20309;-58
2022/08/30 04:55:42;;;;;;;10.35;7.90;;;17.20;99.90;;;;;;5092186;28;20668;-55
2022/08/30 04:58:10;;;;;;;11.20;8.48;;;17.20;99.90;;;;;;5102051;28;20193;-56
2022/08/30 05:00:36;;;;;;;12.52;9.10;;;17.20;99.90;;;;;;5085983;28;20181;-60
2022/08/30 05:03:03;;;;;;;11.65;9.05;;;17.20;99.90;;;;;;5094909;28;20201;-57
2022/08/30 05:05:41;;;;;;;13.70;9.48;;;17.20;99.90;;;;;;5111981;28;20161;-57
2022/08/30 05:08:13;;;;;;;15.38;9.07;;;17.20;99.90;;;;;;5072421;28;20644;-57
2022/08/30 05:10:43;;;;;;;25.45;9.52;;;17.20;99.90;;;;;;5096668;28;20173;-57
2022/08/30 05:13:09;;;;;;;12.65;9.93;;;17.10;99.90;;;;;;5085997;28;20205;-57
2022/08/30 05:15:36;;;;;;;13.13;9.60;;;17.20;99.90;;;;;;5086210;28;20632;-57
2022/08/30 05:18:06;;;;;;;16.80;9.88;;;17.10;99.90;;;;;;5106036;28;20185;-55
2022/08/30 05:20:32;;;;;;;14.60;9.52;;;17.10;99.90;;;;;;5062035;28;20276;-49
2022/08/30 05:22:58;;;;;;;12.70;8.85;;;17.20;99.90;;;;;;5103941;28;20239;-53
2022/08/30 05:25:27;;;;;;;14.80;9.02;;;17.20;99.90;;;;;;5096482;28;20186;-57
2022/08/30 05:27:53;;;;;;;13.02;8.75;;;17.20;99.90;;;;;;5099413;28;20211;-55
2022/08/30 05:30:20;;;;;;;15.55;8.85;;;17.20;99.90;;;;;;5071453;28;20204;-52
2022/08/30 05:32:46;;;;;;;15.20;9.43;;;17.20;99.90;;;;;;5087328;28;20177;-58
2022/08/30 05:35:14;;;;;;;18.52;9.18;;;17.20;99.90;;;;;;5088139;28;20932;-53
2022/08/30 05:37:40;;;;;;;24.10;10.13;;;17.20;99.90;;;;;;5091616;28;20181;-57
2022/08/30 05:40:07;;;;;;;15.25;9.50;;;17.30;99.90;;;;;;5110365;28;20196;-56
2022/08/30 05:42:34;;;;;;;16.42;9.30;;;17.30;99.90;;;;;;5109036;28;20270;-50
2022/08/30 05:45:01;;;;;;;19.38;9.85;;;17.30;99.90;;;;;;5100968;28;20196;-54
2022/08/30 05:47:27;;;;;;;18.40;9.88;;;17.30;99.90;;;;;;5087307;28;20185;-58
2022/08/30 05:49:53;;;;;;;14.07;9.88;;;17.30;99.90;;;;;;5098490;28;20181;-58
2022/08/30 05:52:19;;;;;;;14.82;9.55;;;17.40;99.90;;;;;;5088721;28;20232;-57
2022/08/30 05:54:50;;;;;;;13.00;9.23;;;17.40;99.90;;;;;;5079733;28;20185;-53
2022/08/30 05:57:15;;;;;;;18.50;9.85;;;17.40;99.90;;;;;;5095882;28;20633;-56
2022/08/30 05:59:41;;;;;;;19.92;10.30;;;17.40;99.90;;;;;;5077809;28;20176;-58
2022/08/30 06:02:08;;;;;;;16.50;9.88;;;17.40;99.90;;;;;;5076406;28;20213;-52
2022/08/30 06:04:35;;;;;;;16.25;9.65;;;17.50;99.90;;;;;;5094955;27;20182;-56
2022/08/30 06:07:02;;;;;;;14.05;9.88;;;17.50;99.90;;;;;;5096162;28;20178;-51
2022/08/30 06:09:27;;;;;;;12.40;9.00;;;17.50;99.90;;;;;;5096134;28;20186;-49
2022/08/30 06:11:53;;;;;;;15.80;9.75;;;17.60;99.90;;;;;;5095305;28;20265;-52
2022/08/30 06:14:19;;;;;;;19.92;9.70;;;17.60;99.90;;;;;;5087414;28;20209;-54
2022/08/30 06:16:45;;;;;;;23.15;9.75;;;17.60;99.90;;;;;;5102617;28;20264;-52
2022/08/30 06:19:12;;;;;;;22.40;9.82;;;17.70;99.90;;;;;;5096890;28;20182;-54
2022/08/30 06:21:39;;;;;;;21.27;9.27;;;17.70;99.90;;;;;;5113692;28;20217;-53
2022/08/30 06:24:07;;;;;;;23.90;9.35;;;17.80;99.90;;;;;;5096519;28;20668;-54
2022/08/30 06:26:37;;;;;;;24.13;8.25;;;17.80;99.90;;;;;;5095012;28;20182;-54
2022/08/30 06:29:03;;;;;;;18.48;7.78;;;17.80;99.90;;;;;;5081782;28;20173;-52
2022/08/30 06:31:29;;;;;;;24.10;7.35;;;17.80;99.90;;;;;;5094949;28;20188;-57
2022/08/30 06:33:55;;;;;;;26.27;7.85;;;17.90;99.90;;;;;;5100036;28;20276;-57
2022/08/30 06:36:23;;;;;;;19.48;9.02;;;17.90;99.90;;;;;;5106729;28;20230;-56
2022/08/30 06:38:51;;;;;;;16.77;7.40;;;18.00;99.90;;;;;;5107998;28;20235;-53
2022/08/30 06:41:21;;;;;;;11.93;6.85;;;18.00;99.90;;;;;;5112639;28;20205;-53
2022/08/30 06:43:47;;;;;;;17.00;6.40;;;18.10;99.90;;;;;;5087789;28;20276;-58
2022/08/30 06:46:16;;;;;;;14.07;5.80;;;18.10;99.90;;;;;;5101255;28;20642;-60
2022/08/30 06:48:42;;;;;;;13.57;6.28;;;18.20;99.90;;;;;;5086578;27;20173;-63
2022/08/30 06:51:08;;;;;;;15.55;7.85;;;18.20;99.90;;;;;;5111120;28;20189;-57
2022/08/30 06:53:34;;;;;;;16.88;5.50;;;18.30;99.90;;;;;;5077337;28;20281;-62
2022/08/30 06:56:07;;;;;;;7.90;5.13;;;18.30;99.90;;;;;;5092774;28;20204;-59
2022/08/30 06:58:34;;;;;;;9.45;4.47;;;18.40;99.90;;;;;;5081681;28;20193;-56
2022/08/30 07:01:00;;;;;;;8.82;4.30;;;18.40;99.90;;;;;;5101392;28;20528;-58
2022/08/30 07:03:26;;;;;;;9.80;4.85;;;18.50;99.90;;;;;;5100371;28;20185;-57
2022/08/30 07:05:53;;;;;;;11.27;4.35;;;18.50;99.90;;;;;;5094932;28;20178;-58
2022/08/30 07:08:19;;;;;;;9.45;4.28;;;18.60;99.90;;;;;;5104123;28;20579;-58
2022/08/30 07:10:46;;;;;;;10.30;3.72;;;18.60;99.90;;;;;;5093294;28;20178;-62
2022/08/30 07:13:11;;;;;;;10.60;3.92;;;18.70;99.90;;;;;;5102137;28;20177;-57
2022/08/30 07:15:41;;;;;;;8.43;3.55;;;18.70;99.90;;;;;;5097736;28;20675;-55
2022/08/30 07:20:52;;;;;;;6.03;3.13;;;18.80;99.90;;;;;;5109797;28;20177;-58
2022/08/30 07:23:18;;;;;;;6.57;2.63;;;18.80;99.90;;;;;;5101664;28;20209;-59
2022/08/30 07:25:43;;;;;;;5.25;2.13;;;18.90;99.90;;;;;;5075993;28;20186;-59
2022/08/30 07:28:10;;;;;;;7.75;2.17;;;18.90;99.90;;;;;;5084409;28;20169;-62
2022/08/30 07:30:37;;;;;;;7.68;2.17;;;18.90;99.90;;;;;;5112296;28;20213;-58
2022/08/30 07:33:03;;;;;;;6.07;2.00;;;19.00;99.90;;;;;;5078958;28;20182;-62
2022/08/30 07:35:30;;;;;;;11.45;2.33;;;19.00;99.90;;;;;;5106752;28;20188;-58
2022/08/30 07:37:56;;;;;;;13.50;5.88;;;19.10;99.90;;;;;;5107174;28;20185;-57
2022/08/30 07:40:22;;;;;;;7.15;2.30;;;19.10;99.90;;;;;;5101195;28;20169;-58
2022/08/30 07:42:47;;;;;;;4.90;1.77;;;19.10;99.90;;;;;;5104679;27;20281;-57
2022/08/30 07:45:13;;;;;;;5.95;1.90;;;19.20;99.90;;;;;;5088394;28;20185;-56
2022/08/30 07:47:40;;;;;;;5.50;1.83;;;19.20;99.90;;;;;;5108909;28;20177;-57
2022/08/30 07:50:07;;;;;;;3.55;1.65;;;19.30;99.90;;;;;;5095593;28;20176;-56
2022/08/30 07:52:33;;;;;;;4.50;1.77;;;19.30;99.90;;;;;;5074853;28;20571;-59
2022/08/30 07:55:00;;;;;;;4.68;2.13;;;19.30;99.90;;;;;;5104114;28;20624;-61
2022/08/30 07:57:26;;;;;;;5.78;1.70;;;19.40;99.90;;;;;;5087613;28;20268;-56
2022/08/30 07:59:52;;;;;;;6.20;1.63;;;19.40;99.90;;;;;;5093024;28;20178;-55
2022/08/30 08:02:18;;;;;;;3.03;1.40;;;19.50;99.90;;;;;;5097914;28;20653;-57
2022/08/30 08:04:44;;;;;;;3.40;1.65;;;19.50;99.90;;;;;;5093578;28;20185;-55
2022/08/30 08:07:10;;;;;;;2.83;1.48;;;19.60;99.90;;;;;;5058509;28;20178;-58
2022/08/30 08:09:37;;;;;;;6.18;1.75;;;19.60;99.90;;;;;;5091677;28;20196;-56
2022/08/30 08:12:05;;;;;;;3.42;1.40;;;19.70;99.90;;;;;;5093480;28;20185;-63
2022/08/30 08:14:31;;;;;;;6.72;1.70;;;19.70;99.90;;;;;;5092785;28;20280;-56
2022/08/30 08:16:58;;;;;;;5.57;2.03;;;19.80;99.60;;;;;;5088555;28;20602;-58
2022/08/30 08:19:24;;;;;;;18.83;5.20;;;19.80;99.10;;;;;;5097581;28;20628;-56
2022/08/30 08:21:55;;;;;;;13.05;3.17;;;19.90;98.80;;;;;;5111668;28;20205;-56
2022/08/30 08:24:22;;;;;;;3.33;1.52;;;19.90;98.40;;;;;;5076025;28;20206;-56
2022/08/30 08:26:47;;;;;;;5.45;2.50;;;20.00;98.20;;;;;;5089526;28;20195;-57
2022/08/30 08:29:14;;;;;;;4.40;1.58;;;20.10;98.10;;;;;;5091611;28;20629;-56
2022/08/30 08:31:40;;;;;;;5.28;1.70;;;20.20;97.80;;;;;;5091141;28;20193;-56
2022/08/30 08:34:06;;;;;;;2.67;1.60;;;20.20;97.70;;;;;;5075479;28;20239;-56
2022/08/30 08:36:33;;;;;;;6.63;1.50;;;20.30;97.00;;;;;;5090590;28;20269;-62
2022/08/30 08:39:00;;;;;;;6.47;1.65;;;20.30;96.60;;;;;;5100749;28;20204;-59
2022/08/30 08:41:26;;;;;;;8.52;2.05;;;20.40;96.40;;;;;;5095274;28;20632;-58
2022/08/30 08:43:52;;;;;;;8.05;1.95;;;20.40;96.30;;;;;;5100922;28;20682;-57
2022/08/30 08:46:50;;;;;;;5.78;1.95;;;20.50;96.10;;;;;;5090733;28;20182;-55
2022/08/30 08:49:16;;;;;;;3.80;1.63;;;20.50;95.70;;;;;;5067916;28;20546;-57
2022/08/30 08:54:35;;;;;;;5.38;2.00;;;20.60;95.40;;;;;;5096956;28;20211;-57
2022/08/30 08:57:01;;;;;;;18.80;2.45;;;20.60;95.20;;;;;;5091482;28;21118;-58
2022/08/30 08:59:27;;;;;;;6.22;2.00;;;20.70;95.10;;;;;;5096397;28;20219;-57
2022/08/30 09:01:56;;;;;;;7.78;1.80;;;20.80;94.80;;;;;;5093105;28;20223;-58
2022/08/30 09:04:31;;;;;;;8.30;1.75;;;20.90;94.50;;;;;;5110875;28;20173;-57
2022/08/30 09:07:08;;;;;;;3.75;1.60;;;20.90;94.00;;;;;;5095125;28;20657;-63
2022/08/30 09:09:36;;;;;;;9.98;2.20;;;21.00;93.70;;;;;;5100519;28;20273;-60
2022/08/30 09:12:04;;;;;;;5.72;2.00;;;21.00;93.40;;;;;;5094027;28;20177;-61
2022/08/30 09:14:38;;;;;;;12.23;1.80;;;21.00;93.10;;;;;;5075133;28;20190;-58
2022/08/30 09:17:15;;;;;;;3.42;1.70;;;21.10;92.90;;;;;;5104626;28;20174;-65
2022/08/30 09:19:55;;;;;;;6.75;2.00;;;21.10;93.00;;;;;;5090562;28;20262;-66
2022/08/30 09:22:36;;;;;;;6.88;1.60;;;21.20;93.10;;;;;;5087034;28;20259;-65
2022/08/30 09:25:05;;;;;;;12.48;2.00;;;21.30;93.00;;;;;;5111950;28;20307;-58
2022/08/30 09:27:43;;;;;;;10.30;1.85;;;21.40;92.80;;;;;;5111682;28;20177;-58
2022/08/30 09:30:09;;;;;;;9.45;1.70;;;21.50;92.50;;;;;;5096341;28;20162;-58
2022/08/30 09:32:34;;;;;;;3.22;2.05;;;21.50;92.20;;;;;;5095344;27;20861;-58
2022/08/30 09:35:01;;;;;;;5.78;2.17;;;21.60;91.90;;;;;;5092397;27;20201;-57
2022/08/30 09:37:36;;;;;;;13.10;2.10;;;21.60;91.60;;;;;;5094780;28;20189;-58
2022/08/30 09:40:14;;;;;;;5.68;2.10;;;21.70;91.40;;;;;;5095715;28;20210;-58
2022/08/30 09:42:40;;;;;;;6.00;2.00;;;21.70;91.10;;;;;;5094017;28;20551;-59
2022/08/30 09:45:17;;;;;;;10.93;2.97;;;21.80;90.90;;;;;;5094706;28;20634;-58
2022/08/30 09:47:43;;;;;;;8.23;2.10;;;21.80;90.70;;;;;;5095638;28;20178;-60
2022/08/30 09:50:21;;;;;;;8.00;1.60;;;21.90;90.70;;;;;;5078107;28;20666;-59
2022/08/30 09:52:53;;;;;;;7.47;1.73;;;22.00;90.30;;;;;;5094777;28;20300;-59
2022/08/30 09:55:45;;;;;;;10.45;1.60;;;22.10;90.00;;;;;;5092790;28;20185;-59
2022/08/30 09:58:28;;;;;;;7.43;1.67;;;22.20;90.00;;;;;;5060696;28;20934;-62
2022/08/30 10:01:34;;;;;;;2.75;1.73;;;22.30;89.80;;;;;;5088992;28;20330;-58
2022/08/30 10:04:43;;;;;;;8.85;1.90;;;22.40;90.00;;;;;;5096854;28;20180;-59
2022/08/30 10:07:27;;;;;;;4.72;1.52;;;22.40;89.00;;;;;;5107592;27;20188;-57
2022/08/30 10:10:02;;;;;;;6.47;1.70;;;22.60;88.10;;;;;;5094683;28;20174;-58
2022/08/30 10:12:39;;;;;;;6.38;1.83;;;22.60;87.20;;;;;;5111819;28;20192;-61
2022/08/30 10:15:28;;;;;;;4.60;2.03;;;22.70;86.70;;;;;;5116482;28;20219;-58
2022/08/30 10:18:20;;;;;;;4.68;2.17;;;22.80;85.70;;;;;;5094171;28;20186;-59
2022/08/30 10:21:10;;;;;;;10.93;2.28;;;22.90;84.10;;;;;;5100332;28;20247;-62
2022/08/30 10:23:52;;;;;;;4.57;1.85;;;23.00;83.80;;;;;;5088279;28;20268;-58
2022/08/30 10:26:33;;;;;;;2.55;1.58;;;23.10;83.00;;;;;;5115666;28;20196;-57
2022/08/30 10:29:27;;;;;;;5.68;1.70;;;23.20;83.00;;;;;;5099618;28;20178;-57
2022/08/30 10:32:05;;;;;;;46.20;3.92;;;23.20;81.90;;;;;;5113692;28;20177;-58
2022/08/30 10:34:38;;;;;;;5.43;1.90;;;23.30;81.00;;;;;;5097769;28;20634;-56
2022/08/30 10:37:12;;;;;;;24.02;2.55;;;23.30;80.40;;;;;;5114583;28;20170;-63
2022/08/30 10:39:54;;;;;;;6.95;1.73;;;23.30;80.20;;;;;;5109509;28;20284;-56
2022/08/30 10:42:27;;;;;;;7.15;1.60;;;23.50;79.10;;;;;;5071991;28;20215;-57
2022/08/30 10:45:14;;;;;;;13.50;2.40;;;23.50;80.00;;;;;;5094932;28;20184;-55
2022/08/30 10:47:49;;;;;;;7.13;2.22;;;23.60;79.80;;;;;;5096285;28;20178;-56
2022/08/30 10:50:23;;;;;;;12.25;1.73;;;23.70;78.10;;;;;;5110820;28;20272;-62
2022/08/30 10:52:55;;;;;;;20.67;2.17;;;23.70;77.20;;;;;;5087573;27;20220;-57
2022/08/30 10:55:25;;;;;;;3.55;2.00;;;23.80;76.70;;;;;;5101311;28;20185;-60
2022/08/30 10:57:52;;;;;;;7.80;1.75;;;23.80;76.10;;;;;;5108167;28;20653;-58
2022/08/30 11:00:36;;;;;;;13.13;2.00;;;23.90;75.40;;;;;;5094571;28;20239;-57
2022/08/30 11:03:15;;;;;;;3.38;1.80;;;23.90;74.70;;;;;;5079614;28;20189;-65
2022/08/30 11:05:53;;;;;;;3.28;1.50;;;23.90;74.30;;;;;;5095026;28;20628;-58
2022/08/30 11:08:44;;;;;;;6.47;1.67;;;24.00;74.20;;;;;;5094625;28;20213;-57
2022/08/30 11:11:47;;;;;;;3.63;1.85;;;24.10;74.60;;;;;;5094758;28;20173;-57
2022/08/30 11:14:16;;;;;;;6.78;1.70;;;24.10;75.60;;;;;;5093514;27;20213;-58
2022/08/30 11:16:46;;;;;;;6.88;1.90;;;24.20;75.20;;;;;;5091504;28;20184;-57
2022/08/30 11:19:38;;;;;;;3.97;1.75;;;24.20;74.80;;;;;;5090408;28;20188;-57
2022/08/30 11:22:21;;;;;;;6.15;2.00;;;24.30;74.50;;;;;;5101471;28;20212;-63
2022/08/30 11:25:11;;;;;;;9.48;2.30;;;24.40;74.50;;;;;;5094273;28;20202;-57
2022/08/30 11:27:55;;;;;;;7.13;1.90;;;24.50;74.10;;;;;;5093898;28;20549;-56
2022/08/30 11:30:24;;;;;;;2.88;1.65;;;24.50;73.30;;;;;;5093905;28;20519;-57
2022/08/30 11:33:29;;;;;;;5.28;1.52;;;24.60;72.60;;;;;;5103188;28;20185;-58
2022/08/30 11:35:55;;;;;;;5.90;1.73;;;24.60;71.80;;;;;;5100860;28;20222;-57
2022/08/30 11:38:24;;;;;;;4.88;1.70;;;24.70;71.40;;;;;;5095538;28;20185;-57
2022/08/30 11:41:05;;;;;;;6.88;1.40;;;24.70;70.20;;;;;;5100699;28;20181;-58
2022/08/30 11:43:34;;;;;;;3.63;1.40;;;24.80;69.80;;;;;;5084611;28;20522;-57
2022/08/30 11:46:25;;;;;;;4.47;1.75;;;25.00;69.80;;;;;;5102994;28;20216;-59
2022/08/30 11:49:08;;;;;;;9.57;2.60;;;25.00;68.30;;;;;;5080767;28;20273;-57
2022/08/30 11:52:03;;;;;;;5.40;1.98;;;25.10;67.60;;;;;;5112557;28;20181;-57
2022/08/30 11:54:50;;;;;;;6.93;1.63;;;25.20;68.10;;;;;;5053759;28;20179;-57
2022/08/30 11:57:29;;;;;;;9.00;2.28;;;25.20;67.80;;;;;;5057205;28;20174;-66
2022/08/30 12:00:05;;;;;;;4.07;1.50;;;25.30;67.40;;;;;;5068462;28;20182;-58
2022/08/30 12:02:59;;;;;;;6.07;1.90;;;25.40;67.20;;;;;;5057830;28;20210;-57
2022/08/30 12:05:38;;;;;;;6.45;1.70;;;25.40;66.20;;;;;;5053545;28;20634;-57
2022/08/30 12:08:07;;;;;;;11.05;2.00;;;25.40;65.90;;;;;;5052005;28;20191;-58
2022/08/30 12:10:44;;;;;;;13.88;2.88;;;25.50;65.60;;;;;;5046075;28;20175;-57
2022/08/30 12:13:44;;;;;;;3.65;1.88;;;25.60;65.40;;;;;;5065020;28;20193;-58
2022/08/30 12:16:21;;;;;;;5.90;1.85;;;25.60;65.40;;;;;;5072832;28;20251;-58
2022/08/30 12:18:55;;;;;;;12.77;1.90;;;25.70;65.70;;;;;;5056368;28;20175;-58
2022/08/30 12:21:23;;;;;;;9.65;2.00;;;25.80;64.40;;;;;;5067809;28;20311;-58
2022/08/30 12:23:56;;;;;;;4.70;1.98;;;25.90;63.30;;;;;;5057290;28;20210;-58
2022/08/30 12:26:24;;;;;;;8.95;2.30;;;25.90;63.20;;;;;;5052765;28;20179;-58
2022/08/30 12:29:07;;;;;;;8.90;2.28;;;26.00;63.10;;;;;;5052022;28;20190;-58
2022/08/30 12:31:42;;;;;;;4.75;2.08;;;26.00;61.90;;;;;;5058690;28;20175;-59
2022/08/30 12:34:16;;;;;;;7.50;1.98;;;26.00;61.00;;;;;;5053572;28;20264;-57
2022/08/30 12:36:57;;;;;;;3.72;2.03;;;26.00;61.00;;;;;;5052861;28;20171;-57
2022/08/30 12:39:29;;;;;;;2.80;1.90;;;26.00;60.70;;;;;;5065826;28;20178;-56
2022/08/30 12:42:09;;;;;;;6.28;2.00;;;26.00;60.10;;;;;;5064468;28;20246;-58
2022/08/30 12:44:35;;;;;;;8.35;2.20;;;26.00;59.60;;;;;;5052623;28;20190;-65
2022/08/30 12:47:04;;;;;;;5.03;1.80;;;26.00;59.20;;;;;;5066219;28;20208;-59
2022/08/30 12:49:34;;;;;;;6.45;2.50;;;26.00;59.40;;;;;;5083435;28;20202;-58
2022/08/30 12:52:30;;;;;;;4.72;1.88;;;26.00;59.20;;;;;;5054182;28;20210;-58
2022/08/30 12:55:15;;;;;;;3.75;2.00;;;26.00;58.50;;;;;;5086862;28;20169;-63
2022/08/30 12:57:43;;;;;;;6.63;1.63;;;26.00;58.20;;;;;;5081786;28;20181;-57
2022/08/30 13:00:23;;;;;;;5.45;1.70;;;26.00;58.10;;;;;;5093121;28;20170;-58
2022/08/30 13:02:51;;;;;;;5.20;1.75;;;26.10;58.20;;;;;;5110442;28;20308;-58